sensor_id;sensor_type;location;lat;lon;timestamp;pressure;altitude;pressure_sealevel;temperature;humidity
23164;BME280;31429;42.674;23.350;2023-03-03T00:00:16;94830.47;;;6.38;100.00
23164;BME280;31429;42.674;23.350;2023-03-03T00:01:17;94830.63;;;5.88;100.00
23164;BME280;31429;42.674;23.350;2023-03-03T00:02:18;94832.22;;;5.94;100.00
23164;BME280;31429;42.674;23.350;2023-03-03T00:03:20;94832.72;;;6.11;100.00
23164;BME280;31429;42.674;23.350;2023-03-03T00:04:21;94831.66;;;5.78;100.00
23164;BME280;31429;42.674;23.350;2023-03-03T00:05:24;94833.28;;;5.79;100.00
23164;BME280;31429;42.674;23.350;2023-03-03T00:06:25;94836.91;;;5.67;100.00
23164;BME280;31429;42.674;23.350;2023-03-03T00:07:26;94836.44;;;5.47;100.00
23164;BME280;31429;42.674;23.350;2023-03-03T00:08:29;94821.16;;;5.49;100.00
23164;BME280;31429;42.674;23.350;2023-03-03T00:09:29;94830.56;;;5.42;100.00
23164;BME280;31429;42.674;23.350;2023-03-03T00:10:35;94822.88;;;5.48;100.00
23164;BME280;31429;42.674;23.350;2023-03-03T00:11:36;94825.41;;;5.48;100.00
23164;BME280;31429;42.674;23.350;2023-03-03T00:12:45;94835.47;;;5.53;100.00
23164;BME280;31429;42.674;23.350;2023-03-03T00:13:55;94823.13;;;5.80;100.00
23164;BME280;31429;42.674;23.350;2023-03-03T00:14:57;94823.09;;;5.82;100.00
23164;BME280;31429;42.674;23.350;2023-03-03T00:16:11;94821.03;;;6.04;100.00
23164;BME280;31429;42.674;23.350;2023-03-03T00:17:20;94819.75;;;6.66;100.00
23164;BME280;31429;42.674;23.350;2023-03-03T00:18:27;94801.47;;;6.09;100.00
23164;BME280;31429;42.674;23.350;2023-03-03T00:19:37;94822.63;;;6.08;100.00
23164;BME280;31429;42.674;23.350;2023-03-03T00:20:51;94824.66;;;5.92;100.00
23164;BME280;31429;42.674;23.350;2023-03-03T00:21:56;94815.22;;;6.40;100.00
23164;BME280;31429;42.674;23.350;2023-03-03T00:23:05;94820.16;;;6.05;100.00
23164;BME280;31429;42.674;23.350;2023-03-03T00:24:16;94818.00;;;6.68;100.00
23164;BME280;31429;42.674;23.350;2023-03-03T00:25:27;94818.41;;;6.50;100.00
23164;BME280;31429;42.674;23.350;2023-03-03T00:26:34;94812.38;;;6.55;100.00
23164;BME280;31429;42.674;23.350;2023-03-03T00:27:37;94811.03;;;6.77;100.00
23164;BME280;31429;42.674;23.350;2023-03-03T00:28:44;94812.25;;;6.98;100.00
23164;BME280;31429;42.674;23.350;2023-03-03T00:29:49;94826.28;;;6.38;100.00
23164;BME280;31429;42.674;23.350;2023-03-03T00:30:53;94814.75;;;6.61;100.00
23164;BME280;31429;42.674;23.350;2023-03-03T00:32:03;94821.66;;;6.15;100.00
23164;BME280;31429;42.674;23.350;2023-03-03T00:33:22;94822.34;;;5.78;100.00
23164;BME280;31429;42.674;23.350;2023-03-03T00:34:38;94814.44;;;5.94;100.00
23164;BME280;31429;42.674;23.350;2023-03-03T00:35:42;94814.50;;;5.91;100.00
23164;BME280;31429;42.674;23.350;2023-03-03T00:36:43;94804.00;;;6.09;100.00
23164;BME280;31429;42.674;23.350;2023-03-03T00:37:43;94809.22;;;6.44;100.00
23164;BME280;31429;42.674;23.350;2023-03-03T00:38:45;94811.34;;;6.24;100.00
23164;BME280;31429;42.674;23.350;2023-03-03T00:39:45;94804.16;;;6.43;100.00
23164;BME280;31429;42.674;23.350;2023-03-03T00:40:47;94803.72;;;6.62;100.00
23164;BME280;31429;42.674;23.350;2023-03-03T00:41:48;94804.81;;;6.11;100.00
23164;BME280;31429;42.674;23.350;2023-03-03T00:42:50;94809.41;;;5.92;100.00
23164;BME280;31429;42.674;23.350;2023-03-03T00:43:52;94804.28;;;5.95;100.00
23164;BME280;31429;42.674;23.350;2023-03-03T00:44:57;94805.53;;;5.71;100.00
23164;BME280;31429;42.674;23.350;2023-03-03T00:45:58;94800.63;;;5.64;100.00
23164;BME280;31429;42.674;23.350;2023-03-03T00:47:02;94803.88;;;5.70;100.00
23164;BME280;31429;42.674;23.350;2023-03-03T00:48:20;94782.88;;;6.48;100.00
23164;BME280;31429;42.674;23.350;2023-03-03T00:49:24;94787.16;;;6.46;100.00
23164;BME280;31429;42.674;23.350;2023-03-03T00:50:29;94787.72;;;6.19;100.00
23164;BME280;31429;42.674;23.350;2023-03-03T00:51:31;94788.16;;;5.98;100.00
23164;BME280;31429;42.674;23.350;2023-03-03T00:52:35;94789.13;;;5.91;100.00
23164;BME280;31429;42.674;23.350;2023-03-03T00:53:36;94785.69;;;5.95;100.00
23164;BME280;31429;42.674;23.350;2023-03-03T00:54:37;94785.88;;;5.86;100.00
23164;BME280;31429;42.674;23.350;2023-03-03T00:55:37;94791.84;;;5.82;100.00
23164;BME280;31429;42.674;23.350;2023-03-03T00:56:39;94781.97;;;6.12;100.00
23164;BME280;31429;42.674;23.350;2023-03-03T00:57:40;94786.19;;;6.12;100.00
23164;BME280;31429;42.674;23.350;2023-03-03T00:58:40;94768.59;;;6.43;100.00
23164;BME280;31429;42.674;23.350;2023-03-03T00:59:43;94777.13;;;6.40;100.00
23164;BME280;31429;42.674;23.350;2023-03-03T01:00:45;94771.34;;;6.33;100.00
23164;BME280;31429;42.674;23.350;2023-03-03T01:01:46;94773.81;;;5.97;100.00
23164;BME280;31429;42.674;23.350;2023-03-03T01:02:47;94767.34;;;5.80;100.00
23164;BME280;31429;42.674;23.350;2023-03-03T01:03:48;94770.16;;;5.65;100.00
23164;BME280;31429;42.674;23.350;2023-03-03T01:04:50;94770.25;;;5.59;100.00
23164;BME280;31429;42.674;23.350;2023-03-03T01:05:52;94763.28;;;6.15;100.00
23164;BME280;31429;42.674;23.350;2023-03-03T01:06:53;94762.56;;;6.08;100.00
23164;BME280;31429;42.674;23.350;2023-03-03T01:07:54;94754.13;;;6.08;100.00
23164;BME280;31429;42.674;23.350;2023-03-03T01:08:54;94769.03;;;5.80;100.00
23164;BME280;31429;42.674;23.350;2023-03-03T01:09:56;94763.66;;;5.51;100.00
23164;BME280;31429;42.674;23.350;2023-03-03T01:10:59;94765.81;;;5.72;100.00
23164;BME280;31429;42.674;23.350;2023-03-03T01:12:03;94763.66;;;5.97;100.00
23164;BME280;31429;42.674;23.350;2023-03-03T01:13:05;94761.94;;;5.99;100.00
23164;BME280;31429;42.674;23.350;2023-03-03T01:14:06;94741.72;;;5.94;100.00
23164;BME280;31429;42.674;23.350;2023-03-03T01:15:09;94761.97;;;5.97;100.00
23164;BME280;31429;42.674;23.350;2023-03-03T01:16:11;94757.69;;;5.99;100.00
23164;BME280;31429;42.674;23.350;2023-03-03T01:17:12;94759.31;;;5.57;100.00
23164;BME280;31429;42.674;23.350;2023-03-03T01:18:13;94761.72;;;5.17;100.00
23164;BME280;31429;42.674;23.350;2023-03-03T01:19:15;94752.47;;;5.16;100.00
23164;BME280;31429;42.674;23.350;2023-03-03T01:20:16;94761.03;;;5.09;100.00
23164;BME280;31429;42.674;23.350;2023-03-03T01:21:17;94752.88;;;5.40;100.00
23164;BME280;31429;42.674;23.350;2023-03-03T01:22:18;94764.78;;;5.36;100.00
23164;BME280;31429;42.674;23.350;2023-03-03T01:23:18;94761.59;;;5.25;100.00
23164;BME280;31429;42.674;23.350;2023-03-03T01:24:19;94759.34;;;5.10;100.00
23164;BME280;31429;42.674;23.350;2023-03-03T01:25:20;94763.91;;;5.37;100.00
23164;BME280;31429;42.674;23.350;2023-03-03T01:26:20;94762.56;;;5.18;100.00
23164;BME280;31429;42.674;23.350;2023-03-03T01:27:21;94762.13;;;5.44;100.00
23164;BME280;31429;42.674;23.350;2023-03-03T01:28:22;94758.31;;;5.66;100.00
23164;BME280;31429;42.674;23.350;2023-03-03T01:29:22;94763.13;;;5.79;100.00
23164;BME280;31429;42.674;23.350;2023-03-03T01:30:23;94758.16;;;5.75;100.00
23164;BME280;31429;42.674;23.350;2023-03-03T01:31:25;94762.84;;;5.50;100.00
23164;BME280;31429;42.674;23.350;2023-03-03T01:32:27;94725.72;;;5.00;100.00
23164;BME280;31429;42.674;23.350;2023-03-03T01:33:28;94759.91;;;5.26;100.00
23164;BME280;31429;42.674;23.350;2023-03-03T01:34:29;94754.03;;;5.23;100.00
23164;BME280;31429;42.674;23.350;2023-03-03T01:35:30;94751.72;;;5.57;100.00
23164;BME280;31429;42.674;23.350;2023-03-03T01:36:30;94750.69;;;6.10;100.00
23164;BME280;31429;42.674;23.350;2023-03-03T01:37:33;94752.41;;;6.10;100.00
23164;BME280;31429;42.674;23.350;2023-03-03T01:38:35;94748.50;;;6.33;100.00
23164;BME280;31429;42.674;23.350;2023-03-03T01:39:35;94747.63;;;5.50;100.00
23164;BME280;31429;42.674;23.350;2023-03-03T01:40:36;94745.69;;;5.18;100.00
23164;BME280;31429;42.674;23.350;2023-03-03T01:41:37;94752.69;;;5.03;100.00
23164;BME280;31429;42.674;23.350;2023-03-03T01:42:38;94751.59;;;5.19;100.00
23164;BME280;31429;42.674;23.350;2023-03-03T01:43:43;94751.88;;;5.01;100.00
23164;BME280;31429;42.674;23.350;2023-03-03T01:44:45;94751.34;;;5.77;100.00
23164;BME280;31429;42.674;23.350;2023-03-03T01:47:21;94748.69;;;5.39;100.00
23164;BME280;31429;42.674;23.350;2023-03-03T01:48:29;94756.34;;;5.36;100.00
23164;BME280;31429;42.674;23.350;2023-03-03T01:49:33;94756.75;;;5.13;100.00
23164;BME280;31429;42.674;23.350;2023-03-03T01:50:39;94752.53;;;5.12;100.00
23164;BME280;31429;42.674;23.350;2023-03-03T01:51:46;94745.78;;;5.11;100.00
23164;BME280;31429;42.674;23.350;2023-03-03T01:52:48;94744.13;;;5.10;100.00
23164;BME280;31429;42.674;23.350;2023-03-03T01:53:50;94747.81;;;5.41;100.00
23164;BME280;31429;42.674;23.350;2023-03-03T01:54:54;94747.41;;;5.15;100.00
23164;BME280;31429;42.674;23.350;2023-03-03T01:55:56;94749.25;;;5.07;100.00
23164;BME280;31429;42.674;23.350;2023-03-03T01:57:00;94753.38;;;5.12;100.00
23164;BME280;31429;42.674;23.350;2023-03-03T01:58:04;94750.16;;;5.04;100.00
23164;BME280;31429;42.674;23.350;2023-03-03T01:59:10;94751.28;;;5.34;100.00
23164;BME280;31429;42.674;23.350;2023-03-03T02:00:13;94753.19;;;5.25;100.00
23164;BME280;31429;42.674;23.350;2023-03-03T02:01:16;94750.97;;;5.05;100.00
23164;BME280;31429;42.674;23.350;2023-03-03T02:02:18;94746.91;;;4.95;100.00
23164;BME280;31429;42.674;23.350;2023-03-03T02:03:21;94747.94;;;4.83;100.00
23164;BME280;31429;42.674;23.350;2023-03-03T02:04:23;94753.91;;;4.82;100.00
23164;BME280;31429;42.674;23.350;2023-03-03T02:05:26;94746.25;;;4.85;100.00
23164;BME280;31429;42.674;23.350;2023-03-03T02:06:30;94744.69;;;4.77;100.00
23164;BME280;31429;42.674;23.350;2023-03-03T02:07:33;94744.63;;;4.81;100.00
23164;BME280;31429;42.674;23.350;2023-03-03T02:08:39;94751.03;;;5.49;100.00
23164;BME280;31429;42.674;23.350;2023-03-03T02:09:48;94747.53;;;5.09;100.00
23164;BME280;31429;42.674;23.350;2023-03-03T02:10:51;94746.91;;;5.42;100.00
23164;BME280;31429;42.674;23.350;2023-03-03T02:11:57;94742.84;;;5.34;100.00
23164;BME280;31429;42.674;23.350;2023-03-03T02:12:58;94748.06;;;5.26;100.00
23164;BME280;31429;42.674;23.350;2023-03-03T02:13:59;94749.22;;;5.08;100.00
23164;BME280;31429;42.674;23.350;2023-03-03T02:15:00;94741.00;;;4.96;100.00
23164;BME280;31429;42.674;23.350;2023-03-03T02:16:01;94756.34;;;4.87;100.00
23164;BME280;31429;42.674;23.350;2023-03-03T02:17:01;94748.88;;;4.79;100.00
23164;BME280;31429;42.674;23.350;2023-03-03T02:18:04;94752.38;;;4.71;100.00
23164;BME280;31429;42.674;23.350;2023-03-03T02:19:12;94742.91;;;4.82;100.00
23164;BME280;31429;42.674;23.350;2023-03-03T02:20:24;94746.72;;;5.07;100.00
23164;BME280;31429;42.674;23.350;2023-03-03T02:21:29;94754.72;;;5.33;100.00
23164;BME280;31429;42.674;23.350;2023-03-03T02:22:34;94747.69;;;5.47;100.00
23164;BME280;31429;42.674;23.350;2023-03-03T02:23:47;94745.22;;;5.44;100.00
23164;BME280;31429;42.674;23.350;2023-03-03T02:24:53;94740.66;;;5.14;100.00
23164;BME280;31429;42.674;23.350;2023-03-03T02:26:04;94749.75;;;5.71;100.00
23164;BME280;31429;42.674;23.350;2023-03-03T02:27:06;94742.38;;;5.59;100.00
23164;BME280;31429;42.674;23.350;2023-03-03T02:28:07;94747.31;;;5.19;100.00
23164;BME280;31429;42.674;23.350;2023-03-03T02:29:09;94744.38;;;4.96;100.00
23164;BME280;31429;42.674;23.350;2023-03-03T02:30:15;94747.84;;;4.91;100.00
23164;BME280;31429;42.674;23.350;2023-03-03T02:31:18;94739.50;;;4.84;100.00
23164;BME280;31429;42.674;23.350;2023-03-03T02:32:19;94750.44;;;4.88;100.00
23164;BME280;31429;42.674;23.350;2023-03-03T02:33:19;94747.00;;;4.90;100.00
23164;BME280;31429;42.674;23.350;2023-03-03T02:34:20;94744.75;;;5.22;100.00
23164;BME280;31429;42.674;23.350;2023-03-03T02:35:27;94748.31;;;5.12;100.00
23164;BME280;31429;42.674;23.350;2023-03-03T02:36:30;94742.56;;;5.03;100.00
23164;BME280;31429;42.674;23.350;2023-03-03T02:37:31;94722.66;;;4.82;100.00
23164;BME280;31429;42.674;23.350;2023-03-03T02:38:36;94745.03;;;5.06;100.00
23164;BME280;31429;42.674;23.350;2023-03-03T02:39:39;94748.50;;;5.02;100.00
23164;BME280;31429;42.674;23.350;2023-03-03T02:40:43;94751.19;;;4.93;100.00
23164;BME280;31429;42.674;23.350;2023-03-03T02:41:50;94745.38;;;4.88;100.00
23164;BME280;31429;42.674;23.350;2023-03-03T02:42:54;94739.50;;;4.83;100.00
23164;BME280;31429;42.674;23.350;2023-03-03T02:43:59;94746.94;;;4.93;100.00
23164;BME280;31429;42.674;23.350;2023-03-03T02:45:00;94748.00;;;5.29;100.00
23164;BME280;31429;42.674;23.350;2023-03-03T02:46:01;94753.47;;;5.08;100.00
23164;BME280;31429;42.674;23.350;2023-03-03T02:47:01;94740.25;;;4.91;100.00
23164;BME280;31429;42.674;23.350;2023-03-03T02:48:02;94744.41;;;4.93;100.00
23164;BME280;31429;42.674;23.350;2023-03-03T02:49:03;94751.19;;;4.91;100.00
23164;BME280;31429;42.674;23.350;2023-03-03T02:50:05;94739.16;;;5.04;100.00
23164;BME280;31429;42.674;23.350;2023-03-03T02:51:06;94744.38;;;5.42;100.00
23164;BME280;31429;42.674;23.350;2023-03-03T02:52:08;94751.41;;;5.28;100.00
23164;BME280;31429;42.674;23.350;2023-03-03T02:53:09;94747.06;;;5.36;100.00
23164;BME280;31429;42.674;23.350;2023-03-03T02:54:11;94747.25;;;5.24;100.00
23164;BME280;31429;42.674;23.350;2023-03-03T02:55:12;94741.66;;;5.53;100.00
23164;BME280;31429;42.674;23.350;2023-03-03T02:56:13;94745.16;;;5.47;100.00
23164;BME280;31429;42.674;23.350;2023-03-03T02:57:15;94745.63;;;5.67;100.00
23164;BME280;31429;42.674;23.350;2023-03-03T02:58:15;94746.16;;;5.37;100.00
23164;BME280;31429;42.674;23.350;2023-03-03T02:59:16;94747.41;;;5.16;100.00
23164;BME280;31429;42.674;23.350;2023-03-03T03:00:17;94737.38;;;5.09;100.00
23164;BME280;31429;42.674;23.350;2023-03-03T03:01:18;94738.94;;;5.17;100.00
23164;BME280;31429;42.674;23.350;2023-03-03T03:02:19;94745.97;;;5.02;100.00
23164;BME280;31429;42.674;23.350;2023-03-03T03:03:20;94736.59;;;5.05;100.00
23164;BME280;31429;42.674;23.350;2023-03-03T03:04:22;94733.84;;;5.63;100.00
23164;BME280;31429;42.674;23.350;2023-03-03T03:05:23;94738.63;;;5.36;100.00
23164;BME280;31429;42.674;23.350;2023-03-03T03:06:23;94737.97;;;5.23;100.00
23164;BME280;31429;42.674;23.350;2023-03-03T03:07:24;94737.63;;;5.43;100.00
23164;BME280;31429;42.674;23.350;2023-03-03T03:08:25;94735.66;;;5.57;100.00
23164;BME280;31429;42.674;23.350;2023-03-03T03:09:25;94735.22;;;5.79;100.00
23164;BME280;31429;42.674;23.350;2023-03-03T03:10:27;94732.81;;;5.29;100.00
23164;BME280;31429;42.674;23.350;2023-03-03T03:11:28;94739.91;;;5.09;100.00
23164;BME280;31429;42.674;23.350;2023-03-03T03:12:30;94735.00;;;5.01;100.00
23164;BME280;31429;42.674;23.350;2023-03-03T03:13:31;94741.19;;;4.84;100.00
23164;BME280;31429;42.674;23.350;2023-03-03T03:14:32;94734.34;;;4.90;100.00
23164;BME280;31429;42.674;23.350;2023-03-03T03:15:34;94737.19;;;5.19;100.00
23164;BME280;31429;42.674;23.350;2023-03-03T03:16:35;94735.59;;;5.14;100.00
23164;BME280;31429;42.674;23.350;2023-03-03T03:17:36;94737.72;;;4.91;100.00
23164;BME280;31429;42.674;23.350;2023-03-03T03:18:37;94736.88;;;4.90;100.00
23164;BME280;31429;42.674;23.350;2023-03-03T03:19:37;94726.81;;;4.86;100.00
23164;BME280;31429;42.674;23.350;2023-03-03T03:20:38;94735.00;;;5.01;100.00
23164;BME280;31429;42.674;23.350;2023-03-03T03:21:43;94733.44;;;4.93;100.00
23164;BME280;31429;42.674;23.350;2023-03-03T03:22:44;94736.66;;;5.02;100.00
23164;BME280;31429;42.674;23.350;2023-03-03T03:23:45;94737.88;;;4.80;100.00
23164;BME280;31429;42.674;23.350;2023-03-03T03:24:45;94732.91;;;4.74;100.00
23164;BME280;31429;42.674;23.350;2023-03-03T03:25:46;94730.78;;;5.00;100.00
23164;BME280;31429;42.674;23.350;2023-03-03T03:26:47;94735.88;;;4.99;100.00
23164;BME280;31429;42.674;23.350;2023-03-03T03:27:49;94728.28;;;4.99;100.00
23164;BME280;31429;42.674;23.350;2023-03-03T03:28:50;94728.34;;;4.96;100.00
23164;BME280;31429;42.674;23.350;2023-03-03T03:29:51;94732.38;;;5.06;100.00
23164;BME280;31429;42.674;23.350;2023-03-03T03:30:51;94726.50;;;5.02;100.00
23164;BME280;31429;42.674;23.350;2023-03-03T03:31:52;94727.41;;;5.00;100.00
23164;BME280;31429;42.674;23.350;2023-03-03T03:32:52;94732.59;;;4.92;100.00
23164;BME280;31429;42.674;23.350;2023-03-03T03:33:53;94725.41;;;5.18;100.00
23164;BME280;31429;42.674;23.350;2023-03-03T03:34:54;94730.59;;;5.11;100.00
23164;BME280;31429;42.674;23.350;2023-03-03T03:35:54;94731.72;;;4.96;100.00
23164;BME280;31429;42.674;23.350;2023-03-03T03:36:55;94727.44;;;4.97;100.00
23164;BME280;31429;42.674;23.350;2023-03-03T03:37:56;94723.81;;;5.11;100.00
23164;BME280;31429;42.674;23.350;2023-03-03T03:38:57;94722.88;;;5.17;100.00
23164;BME280;31429;42.674;23.350;2023-03-03T03:39:57;94714.06;;;4.90;100.00
23164;BME280;31429;42.674;23.350;2023-03-03T03:40:58;94723.38;;;4.90;100.00
23164;BME280;31429;42.674;23.350;2023-03-03T03:41:59;94720.09;;;4.85;100.00
23164;BME280;31429;42.674;23.350;2023-03-03T03:43:01;94720.78;;;4.91;100.00
23164;BME280;31429;42.674;23.350;2023-03-03T03:44:02;94713.16;;;4.94;100.00
23164;BME280;31429;42.674;23.350;2023-03-03T03:45:03;94718.25;;;4.91;100.00
23164;BME280;31429;42.674;23.350;2023-03-03T03:46:04;94718.91;;;5.02;100.00
23164;BME280;31429;42.674;23.350;2023-03-03T03:47:05;94721.28;;;5.11;100.00
23164;BME280;31429;42.674;23.350;2023-03-03T03:48:05;94717.84;;;5.15;100.00
23164;BME280;31429;42.674;23.350;2023-03-03T03:49:06;94710.44;;;5.05;100.00
23164;BME280;31429;42.674;23.350;2023-03-03T03:50:08;94713.88;;;5.01;100.00
23164;BME280;31429;42.674;23.350;2023-03-03T03:51:10;94714.84;;;4.94;100.00
23164;BME280;31429;42.674;23.350;2023-03-03T03:52:10;94707.44;;;4.83;100.00
23164;BME280;31429;42.674;23.350;2023-03-03T03:53:11;94712.53;;;4.82;100.00
23164;BME280;31429;42.674;23.350;2023-03-03T03:54:12;94710.81;;;4.84;100.00
23164;BME280;31429;42.674;23.350;2023-03-03T03:55:12;94719.28;;;4.80;100.00
23164;BME280;31429;42.674;23.350;2023-03-03T03:56:14;94707.56;;;4.74;100.00
23164;BME280;31429;42.674;23.350;2023-03-03T03:57:15;94717.75;;;4.71;100.00
23164;BME280;31429;42.674;23.350;2023-03-03T03:58:17;94714.97;;;4.88;100.00
23164;BME280;31429;42.674;23.350;2023-03-03T03:59:18;94710.84;;;5.28;100.00
23164;BME280;31429;42.674;23.350;2023-03-03T04:00:19;94711.19;;;5.10;100.00
23164;BME280;31429;42.674;23.350;2023-03-03T04:01:20;94712.31;;;4.94;100.00
23164;BME280;31429;42.674;23.350;2023-03-03T04:02:20;94711.31;;;5.02;100.00
23164;BME280;31429;42.674;23.350;2023-03-03T04:03:21;94709.03;;;5.36;100.00
23164;BME280;31429;42.674;23.350;2023-03-03T04:04:21;94702.66;;;5.15;100.00
23164;BME280;31429;42.674;23.350;2023-03-03T04:05:22;94709.72;;;4.97;100.00
23164;BME280;31429;42.674;23.350;2023-03-03T04:06:23;94706.72;;;4.77;100.00
23164;BME280;31429;42.674;23.350;2023-03-03T04:07:24;94706.91;;;4.64;100.00
23164;BME280;31429;42.674;23.350;2023-03-03T04:08:25;94705.84;;;4.78;100.00
23164;BME280;31429;42.674;23.350;2023-03-03T04:09:25;94705.03;;;4.76;100.00
23164;BME280;31429;42.674;23.350;2023-03-03T04:10:27;94701.69;;;4.74;100.00
23164;BME280;31429;42.674;23.350;2023-03-03T04:11:28;94705.13;;;4.70;100.00
23164;BME280;31429;42.674;23.350;2023-03-03T04:12:28;94704.25;;;4.72;100.00
23164;BME280;31429;42.674;23.350;2023-03-03T04:13:31;94706.75;;;4.74;100.00
23164;BME280;31429;42.674;23.350;2023-03-03T04:14:34;94703.34;;;4.76;100.00
23164;BME280;31429;42.674;23.350;2023-03-03T04:15:35;94698.03;;;4.90;100.00
23164;BME280;31429;42.674;23.350;2023-03-03T04:16:35;94701.72;;;4.72;100.00
23164;BME280;31429;42.674;23.350;2023-03-03T04:17:36;94706.00;;;4.67;100.00
23164;BME280;31429;42.674;23.350;2023-03-03T04:18:37;94708.53;;;4.67;100.00
23164;BME280;31429;42.674;23.350;2023-03-03T04:19:37;94696.72;;;4.68;100.00
23164;BME280;31429;42.674;23.350;2023-03-03T04:20:38;94699.25;;;4.68;100.00
23164;BME280;31429;42.674;23.350;2023-03-03T04:21:39;94703.63;;;4.59;100.00
23164;BME280;31429;42.674;23.350;2023-03-03T04:22:40;94706.97;;;4.60;100.00
23164;BME280;31429;42.674;23.350;2023-03-03T04:23:41;94711.22;;;4.58;100.00
23164;BME280;31429;42.674;23.350;2023-03-03T04:24:41;94702.69;;;4.65;100.00
23164;BME280;31429;42.674;23.350;2023-03-03T04:25:42;94704.28;;;4.69;100.00
23164;BME280;31429;42.674;23.350;2023-03-03T04:26:42;94702.56;;;4.71;100.00
23164;BME280;31429;42.674;23.350;2023-03-03T04:27:43;94703.56;;;4.62;100.00
23164;BME280;31429;42.674;23.350;2023-03-03T04:28:46;94702.03;;;4.54;100.00
23164;BME280;31429;42.674;23.350;2023-03-03T04:29:46;94708.81;;;4.49;100.00
23164;BME280;31429;42.674;23.350;2023-03-03T04:30:47;94702.91;;;4.50;100.00
23164;BME280;31429;42.674;23.350;2023-03-03T04:31:48;94702.06;;;4.51;100.00
23164;BME280;31429;42.674;23.350;2023-03-03T04:32:48;94702.03;;;4.52;100.00
23164;BME280;31429;42.674;23.350;2023-03-03T04:33:49;94706.19;;;4.56;100.00
23164;BME280;31429;42.674;23.350;2023-03-03T04:34:50;94705.50;;;4.47;100.00
23164;BME280;31429;42.674;23.350;2023-03-03T04:35:50;94704.69;;;4.45;100.00
23164;BME280;31429;42.674;23.350;2023-03-03T04:36:51;94691.66;;;4.68;100.00
23164;BME280;31429;42.674;23.350;2023-03-03T04:37:52;94699.41;;;4.58;100.00
23164;BME280;31429;42.674;23.350;2023-03-03T04:38:52;94697.81;;;4.53;100.00
23164;BME280;31429;42.674;23.350;2023-03-03T04:39:53;94699.41;;;4.58;100.00
23164;BME280;31429;42.674;23.350;2023-03-03T04:40:55;94691.78;;;4.60;100.00
23164;BME280;31429;42.674;23.350;2023-03-03T04:41:55;94684.19;;;4.60;100.00
23164;BME280;31429;42.674;23.350;2023-03-03T04:42:56;94704.47;;;4.58;100.00
23164;BME280;31429;42.674;23.350;2023-03-03T04:43:58;94701.97;;;4.55;100.00
23164;BME280;31429;42.674;23.350;2023-03-03T04:44:58;94704.50;;;4.55;100.00
23164;BME280;31429;42.674;23.350;2023-03-03T04:45:59;94698.56;;;4.59;100.00
23164;BME280;31429;42.674;23.350;2023-03-03T04:47:00;94696.63;;;4.74;100.00
23164;BME280;31429;42.674;23.350;2023-03-03T04:48:00;94692.56;;;4.63;100.00
23164;BME280;31429;42.674;23.350;2023-03-03T04:49:01;94696.91;;;4.55;100.00
23164;BME280;31429;42.674;23.350;2023-03-03T04:50:03;94695.22;;;4.54;100.00
23164;BME280;31429;42.674;23.350;2023-03-03T04:51:04;94686.94;;;4.48;100.00
23164;BME280;31429;42.674;23.350;2023-03-03T04:52:05;94696.06;;;4.56;100.00
23164;BME280;31429;42.674;23.350;2023-03-03T04:53:06;94697.72;;;4.57;100.00
23164;BME280;31429;42.674;23.350;2023-03-03T04:54:06;94695.22;;;4.56;100.00
23164;BME280;31429;42.674;23.350;2023-03-03T04:55:08;94690.03;;;4.63;100.00
23164;BME280;31429;42.674;23.350;2023-03-03T04:56:09;94695.97;;;4.61;100.00
23164;BME280;31429;42.674;23.350;2023-03-03T04:57:09;94698.56;;;4.59;100.00
23164;BME280;31429;42.674;23.350;2023-03-03T04:58:10;94700.25;;;4.57;100.00
23164;BME280;31429;42.674;23.350;2023-03-03T04:59:13;94700.34;;;4.53;100.00
23164;BME280;31429;42.674;23.350;2023-03-03T05:00:15;94701.94;;;4.58;100.00
23164;BME280;31429;42.674;23.350;2023-03-03T05:01:15;94700.31;;;4.54;100.00
23164;BME280;31429;42.674;23.350;2023-03-03T05:02:17;94707.09;;;4.52;100.00
23164;BME280;31429;42.674;23.350;2023-03-03T05:03:19;94705.38;;;4.54;100.00
23164;BME280;31429;42.674;23.350;2023-03-03T05:04:19;94704.38;;;4.63;100.00
23164;BME280;31429;42.674;23.350;2023-03-03T05:05:20;94701.78;;;4.68;100.00
23164;BME280;31429;42.674;23.350;2023-03-03T05:06:21;94706.72;;;4.75;100.00
23164;BME280;31429;42.674;23.350;2023-03-03T05:07:21;94706.78;;;4.72;100.00
23164;BME280;31429;42.674;23.350;2023-03-03T05:08:22;94705.34;;;4.56;100.00
23164;BME280;31429;42.674;23.350;2023-03-03T05:09:23;94703.66;;;4.55;100.00
23164;BME280;31429;42.674;23.350;2023-03-03T05:10:24;94698.34;;;4.72;100.00
23164;BME280;31429;42.674;23.350;2023-03-03T05:11:24;94703.44;;;4.69;100.00
23164;BME280;31429;42.674;23.350;2023-03-03T05:12:25;94699.41;;;4.58;100.00
23164;BME280;31429;42.674;23.350;2023-03-03T05:13:26;94709.47;;;4.61;100.00
23164;BME280;31429;42.674;23.350;2023-03-03T05:14:29;94702.78;;;4.59;100.00
23164;BME280;31429;42.674;23.350;2023-03-03T05:15:30;94705.34;;;4.56;100.00
23164;BME280;31429;42.674;23.350;2023-03-03T05:16:31;94709.44;;;4.63;100.00
23164;BME280;31429;42.674;23.350;2023-03-03T05:17:32;94707.91;;;4.54;100.00
23164;BME280;31429;42.674;23.350;2023-03-03T05:18:32;94710.34;;;4.60;100.00
23164;BME280;31429;42.674;23.350;2023-03-03T05:19:33;94697.56;;;4.68;100.00
23164;BME280;31429;42.674;23.350;2023-03-03T05:20:34;94707.53;;;4.77;100.00
23164;BME280;31429;42.674;23.350;2023-03-03T05:21:34;94706.09;;;4.62;100.00
23164;BME280;31429;42.674;23.350;2023-03-03T05:22:35;94705.25;;;4.62;100.00
23164;BME280;31429;42.674;23.350;2023-03-03T05:23:36;94711.94;;;4.66;100.00
23164;BME280;31429;42.674;23.350;2023-03-03T05:24:37;94712.03;;;4.60;100.00
23164;BME280;31429;42.674;23.350;2023-03-03T05:25:39;94715.34;;;4.63;100.00
23164;BME280;31429;42.674;23.350;2023-03-03T05:26:40;94716.16;;;4.67;100.00